Time;durP1;ratioP1;P1;durP2;ratioP2;P2;SDS_P1;SDS_P2;PMS_P1;PMS_P2;Temp;Humidity;BMP_temperature;BMP_pressure;BME280_temperature;BME280_humidity;BME280_pressure;Samples;Min_cycle;Max_cycle;Signal;HPM_P1;HPM_P2
2023/05/04 00:00:04;;;;;;;3.27;2.93;;;;;;;-143.99;100.00;64180.81;6128325;28;20242;-77
2023/05/04 00:03:28;;;;;;;6.23;1.83;;;;;;;-143.99;100.00;64180.81;6130516;28;20239;-76
2023/05/04 00:06:49;;;;;;;5.63;1.77;;;;;;;-143.99;100.00;64180.81;6127266;28;20238;-75
2023/05/04 00:10:10;;;;;;;3.90;2.67;;;;;;;-143.99;100.00;64180.81;6125880;28;20678;-77
2023/05/04 00:13:33;;;;;;;3.33;2.13;;;;;;;-143.99;100.00;64180.81;6139046;28;20231;-75
2023/05/04 00:16:54;;;;;;;3.13;2.23;;;;;;;-143.99;100.00;64180.81;6129776;28;20732;-77
2023/05/04 00:20:15;;;;;;;2.20;2.00;;;;;;;-143.99;100.00;64180.81;6133455;28;20239;-77
2023/05/04 00:23:36;;;;;;;3.53;2.07;;;;;;;-143.99;100.00;64180.81;6137562;28;20587;-78
2023/05/04 00:26:57;;;;;;;3.17;2.83;;;;;;;-143.99;100.00;64180.81;6136211;28;20524;-76
2023/05/04 00:30:19;;;;;;;2.43;2.23;;;;;;;-143.99;100.00;64180.81;6127641;28;20222;-75
2023/05/04 00:33:40;;;;;;;6.80;2.43;;;;;;;-143.99;100.00;64180.81;6126567;28;20250;-75
2023/05/04 00:37:03;;;;;;;2.00;1.87;;;;;;;-143.99;100.00;64180.81;6105270;28;20235;-76
2023/05/04 00:40:24;;;;;;;2.93;2.30;;;;;;;-143.99;100.00;64180.81;6138534;28;20246;-78
2023/05/04 00:43:45;;;;;;;6.77;1.87;;;;;;;-143.99;100.00;64180.81;6123781;28;20258;-74
2023/05/04 00:47:08;;;;;;;3.27;2.47;;;;;;;-143.99;100.00;64180.81;6120251;28;20314;-76
2023/05/04 00:50:29;;;;;;;3.77;3.47;;;;;;;-143.99;100.00;64180.81;6136011;28;20242;-75
2023/05/04 00:53:51;;;;;;;4.17;2.70;;;;;;;-143.99;100.00;64180.81;6134515;28;20616;-75
2023/05/04 00:57:14;;;;;;;2.00;1.70;;;;;;;-143.99;100.00;64180.81;6095791;28;20243;-74
2023/05/04 01:00:35;;;;;;;3.53;2.97;;;;;;;-143.99;100.00;64180.81;6121971;28;20238;-75
2023/05/04 01:04:01;;;;;;;3.77;2.17;;;;;;;-143.99;100.00;64180.81;6135106;28;20234;-74
2023/05/04 01:07:27;;;;;;;2.37;2.17;;;;;;;-143.99;100.00;64180.81;6128425;28;20223;-75
2023/05/04 01:10:56;;;;;;;2.30;2.10;;;;;;;-143.99;100.00;64180.81;6133777;28;20227;-75
2023/05/04 01:14:20;;;;;;;3.97;2.47;;;;;;;-143.99;100.00;64180.81;6111224;28;20227;-76
2023/05/04 01:17:41;;;;;;;9.97;3.30;;;;;;;-143.99;100.00;64180.81;6137972;28;20243;-76
2023/05/04 01:21:04;;;;;;;4.93;2.33;;;;;;;-143.99;100.00;64180.81;6126682;28;20234;-75
2023/05/04 01:24:27;;;;;;;3.53;1.70;;;;;;;-143.99;100.00;64180.81;6121773;28;20578;-76
2023/05/04 01:27:56;;;;;;;3.67;2.43;;;;;;;-143.99;100.00;64180.81;6131074;28;20222;-76
2023/05/04 01:31:21;;;;;;;3.07;2.80;;;;;;;-143.99;100.00;64180.81;6137174;28;20238;-76
2023/05/04 01:34:42;;;;;;;3.13;2.43;;;;;;;-143.99;100.00;64180.81;6123007;28;20238;-74
2023/05/04 01:38:03;;;;;;;2.50;2.30;;;;;;;-143.99;100.00;64180.81;6142610;28;20243;-76
2023/05/04 01:41:25;;;;;;;2.10;1.93;;;;;;;-143.99;100.00;64180.81;6121071;28;20616;-76
2023/05/04 01:44:46;;;;;;;3.87;2.10;;;;;;;-143.99;100.00;64180.81;6125100;28;20605;-75
2023/05/04 01:48:07;;;;;;;3.17;2.27;;;;;;;-143.99;100.00;64180.81;6127620;28;20238;-75
2023/05/04 01:51:28;;;;;;;6.30;3.27;;;;;;;-143.99;100.00;64180.81;6134306;28;20593;-75
2023/05/04 01:54:49;;;;;;;3.27;2.27;;;;;;;-143.99;100.00;64180.81;6144331;28;20322;-76
2023/05/04 01:58:11;;;;;;;3.53;2.83;;;;;;;-143.99;100.00;64180.81;6145672;28;20231;-75
2023/05/04 02:01:32;;;;;;;3.87;2.30;;;;;;;-143.99;100.00;64180.81;6139308;28;20266;-76
2023/05/04 02:04:53;;;;;;;4.53;1.90;;;;;;;-143.99;100.00;64180.81;6146555;28;20231;-76
2023/05/04 02:08:14;;;;;;;2.23;2.10;;;;;;;-143.99;100.00;64180.81;6131746;28;20824;-77
2023/05/04 02:11:35;;;;;;;5.13;2.47;;;;;;;-143.99;100.00;64180.81;6128278;28;20246;-76
2023/05/04 02:14:57;;;;;;;7.87;4.27;;;;;;;-143.99;100.00;64180.81;6125437;28;20231;-76
2023/05/04 02:18:18;;;;;;;3.07;2.30;;;;;;;-143.99;100.00;64180.81;6124940;28;20231;-76
2023/05/04 02:21:41;;;;;;;2.83;1.87;;;;;;;-143.99;100.00;64180.81;6137805;28;20235;-74
2023/05/04 02:25:02;;;;;;;2.30;1.80;;;;;;;-143.99;100.00;64180.81;6127518;28;20247;-75
2023/05/04 02:28:23;;;;;;;3.53;2.67;;;;;;;-143.99;100.00;64180.81;6132057;28;20235;-74
2023/05/04 02:31:45;;;;;;;2.50;2.03;;;;;;;-143.99;100.00;64180.81;6128536;28;20961;-75
2023/05/04 02:35:11;;;;;;;3.77;1.80;;;;;;;-143.99;100.00;64180.81;6130170;28;20238;-75
2023/05/04 02:38:32;;;;;;;5.07;2.33;;;;;;;-143.99;100.00;64180.81;6140213;28;20302;-75
2023/05/04 02:41:54;;;;;;;6.20;2.60;;;;;;;-143.99;100.00;64180.81;6127102;28;20223;-75
2023/05/04 02:45:15;;;;;;;2.37;2.23;;;;;;;-143.99;100.00;64180.81;6123373;28;22447;-75
2023/05/04 02:48:37;;;;;;;3.87;2.73;;;;;;;-143.99;100.00;64180.81;6145211;28;20243;-75
2023/05/04 02:51:58;;;;;;;4.37;2.03;;;;;;;-143.99;100.00;64180.81;6132054;28;20267;-75
2023/05/04 02:55:19;;;;;;;2.93;2.60;;;;;;;-143.99;100.00;64180.81;6131577;28;20252;-76
2023/05/04 02:58:40;;;;;;;1.80;1.70;;;;;;;-143.99;100.00;64180.81;6131278;28;20960;-75
2023/05/04 03:02:01;;;;;;;5.80;2.40;;;;;;;-143.99;100.00;64180.81;6140051;28;20266;-75
2023/05/04 03:05:25;;;;;;;6.30;3.17;;;;;;;-143.99;100.00;64180.81;6127408;28;20232;-74
2023/05/04 03:08:50;;;;;;;4.53;2.33;;;;;;;-143.99;100.00;64180.81;6124685;28;20622;-74
2023/05/04 03:12:11;;;;;;;4.10;2.97;;;;;;;-143.99;100.00;64180.81;6114223;28;20239;-74
2023/05/04 03:15:32;;;;;;;3.07;2.27;;;;;;;-143.99;100.00;64180.81;6124197;28;20247;-75
2023/05/04 03:18:53;;;;;;;2.27;2.07;;;;;;;-143.99;100.00;64180.81;6130628;28;20227;-76
2023/05/04 03:22:15;;;;;;;2.90;2.70;;;;;;;-143.99;100.00;64180.81;6112861;28;20270;-75
2023/05/04 03:25:37;;;;;;;3.07;2.20;;;;;;;-143.99;100.00;64180.81;6132363;28;20335;-75
2023/05/04 03:28:59;;;;;;;4.33;2.23;;;;;;;-143.99;100.00;64180.81;6148778;28;20539;-75
2023/05/04 03:32:20;;;;;;;5.70;2.80;;;;;;;-143.99;100.00;64180.81;6143264;28;20235;-75
2023/05/04 03:35:41;;;;;;;2.50;2.03;;;;;;;-143.99;100.00;64180.81;6140133;28;20527;-76
2023/05/04 03:39:03;;;;;;;2.40;1.90;;;;;;;-143.99;100.00;64180.81;6125358;28;20297;-75
2023/05/04 03:42:25;;;;;;;2.73;2.20;;;;;;;-143.99;100.00;64180.81;6141245;28;20643;-75
2023/05/04 03:45:46;;;;;;;3.27;2.10;;;;;;;-143.99;100.00;64180.81;6117654;28;20246;-74
2023/05/04 03:49:07;;;;;;;2.60;1.93;;;;;;;-143.99;100.00;64180.81;6131125;28;20239;-75
2023/05/04 03:52:31;;;;;;;1.93;1.83;;;;;;;-143.99;100.00;64180.81;6135346;28;20590;-75
2023/05/04 03:55:53;;;;;;;2.53;1.87;;;;;;;-143.99;100.00;64180.81;6129343;28;20601;-74
2023/05/04 03:59:16;;;;;;;4.43;1.80;;;;;;;-143.99;100.00;64180.81;6123457;28;20231;-75
2023/05/04 04:02:37;;;;;;;2.90;2.30;;;;;;;-143.99;100.00;64180.81;6125076;28;20243;-76
2023/05/04 04:05:58;;;;;;;6.93;2.60;;;;;;;-143.99;100.00;64180.81;6140800;28;20750;-75
2023/05/04 04:09:20;;;;;;;2.97;2.40;;;;;;;-143.99;100.00;64180.81;6127226;28;20259;-75
2023/05/04 04:12:42;;;;;;;2.63;2.43;;;;;;;-143.99;100.00;64180.81;6130788;28;20284;-76
2023/05/04 04:16:03;;;;;;;21.30;16.23;;;;;;;-143.99;100.00;64180.81;6128672;28;20255;-75
2023/05/04 04:19:26;;;;;;;16.93;11.60;;;;;;;-143.99;100.00;64180.81;6135024;28;20239;-74
2023/05/04 04:22:47;;;;;;;7.13;4.97;;;;;;;-143.99;100.00;64180.81;6133053;28;20251;-75
2023/05/04 04:26:09;;;;;;;3.63;2.97;;;;;;;-143.99;100.00;64180.81;6129052;28;20246;-75
2023/05/04 04:29:34;;;;;;;3.03;2.20;;;;;;;-143.99;100.00;64180.81;6130620;28;20246;-76
2023/05/04 04:32:56;;;;;;;2.73;2.27;;;;;;;-143.99;100.00;64180.81;6128071;28;20580;-76
2023/05/04 04:36:17;;;;;;;6.77;2.13;;;;;;;-143.99;100.00;64180.81;6129703;28;20639;-75
2023/05/04 04:39:38;;;;;;;3.80;2.70;;;;;;;-143.99;100.00;64180.81;6129711;28;20239;-76
2023/05/04 04:42:59;;;;;;;2.37;1.77;;;;;;;-143.99;100.00;64180.81;6127038;28;20519;-76
2023/05/04 04:46:21;;;;;;;5.63;3.60;;;;;;;-143.99;100.00;64180.81;6128630;28;20231;-76
2023/05/04 04:49:42;;;;;;;3.40;2.03;;;;;;;-143.99;100.00;64180.81;6129845;28;20239;-75
2023/05/04 04:53:03;;;;;;;4.47;1.90;;;;;;;-143.99;100.00;64180.81;6128487;28;20322;-75
2023/05/04 04:56:25;;;;;;;3.20;1.73;;;;;;;-143.99;100.00;64180.81;6126531;28;20509;-75
2023/05/04 04:59:46;;;;;;;2.43;2.23;;;;;;;-143.99;100.00;64180.81;6120862;28;20235;-74
2023/05/04 05:03:09;;;;;;;2.67;1.93;;;;;;;-143.99;100.00;64180.81;6122774;28;20227;-76
2023/05/04 05:06:30;;;;;;;3.40;1.87;;;;;;;-143.99;100.00;64180.81;6126495;28;20226;-76
2023/05/04 05:09:51;;;;;;;6.00;2.13;;;;;;;-143.99;100.00;64180.81;6134356;28;20648;-76
2023/05/04 05:13:11;;;;;;;5.10;2.10;;;;;;;-143.99;100.00;64180.81;6129814;28;20708;-75
2023/05/04 05:16:32;;;;;;;3.53;1.80;;;;;;;-143.99;100.00;64180.81;6132358;28;20309;-74
2023/05/04 05:19:54;;;;;;;2.30;2.13;;;;;;;-143.99;100.00;64180.81;6116388;28;20239;-76
2023/05/04 05:23:15;;;;;;;4.00;2.53;;;;;;;-143.99;100.00;64180.81;6122786;28;20230;-74
2023/05/04 05:26:36;;;;;;;3.40;2.37;;;;;;;-143.99;100.00;64180.81;6119129;28;20262;-75
2023/05/04 05:29:57;;;;;;;3.73;2.37;;;;;;;-143.99;100.00;64180.81;6117106;28;20235;-76
2023/05/04 05:33:17;;;;;;;11.57;2.73;;;;;;;-143.99;100.00;64180.81;6100866;28;20972;-75
2023/05/04 05:36:40;;;;;;;4.53;3.07;;;;;;;-143.99;100.00;64180.81;6126094;28;20232;-77
2023/05/04 05:40:00;;;;;;;3.37;2.20;;;;;;;-143.99;100.00;64180.81;6108401;28;20799;-74
2023/05/04 05:43:22;;;;;;;2.57;2.37;;;;;;;-143.99;100.00;64180.81;6120508;28;20269;-75
2023/05/04 05:46:43;;;;;;;2.70;1.37;;;;;;;-143.99;100.00;64180.81;6130316;28;20231;-75
2023/05/04 05:50:04;;;;;;;2.63;2.03;;;;;;;-143.99;100.00;64180.81;6118890;28;20235;-76
2023/05/04 05:53:26;;;;;;;3.43;1.77;;;;;;;-143.99;100.00;64180.81;6117331;28;20235;-75
2023/05/04 05:56:47;;;;;;;4.20;1.77;;;;;;;-143.99;100.00;64180.81;6121634;28;20258;-73
2023/05/04 06:00:09;;;;;;;2.70;1.77;;;;;;;-143.99;100.00;64180.81;6124920;28;20251;-73
2023/05/04 06:03:35;;;;;;;6.47;2.17;;;;;;;-143.99;100.00;64180.81;6114641;28;20239;-76
2023/05/04 06:06:56;;;;;;;4.40;1.80;;;;;;;-143.99;100.00;64180.81;6142614;28;20223;-74
2023/05/04 06:10:19;;;;;;;4.40;2.43;;;;;;;-143.99;100.00;64180.81;6132372;28;20231;-73
2023/05/04 06:13:40;;;;;;;2.07;1.77;;;;;;;-143.99;100.00;64180.81;6145094;28;20238;-74
2023/05/04 06:17:00;;;;;;;4.47;2.73;;;;;;;-143.99;100.00;64180.81;6147379;28;20227;-73
2023/05/04 06:20:21;;;;;;;1.80;1.30;;;;;;;-143.99;100.00;64180.81;6143762;28;20243;-75
2023/05/04 06:23:42;;;;;;;6.97;1.77;;;;;;;-143.99;100.00;64180.81;6139006;28;20223;-73
2023/05/04 06:27:04;;;;;;;3.87;1.83;;;;;;;-143.99;100.00;64180.81;6122199;28;20226;-79
2023/05/04 06:30:25;;;;;;;3.53;2.13;;;;;;;-143.99;100.00;64180.81;6129108;28;20235;-72
2023/05/04 06:33:47;;;;;;;4.67;1.70;;;;;;;-143.99;100.00;64180.81;6138880;28;20239;-71
2023/05/04 06:37:08;;;;;;;4.23;2.63;;;;;;;-143.99;100.00;64180.81;6130846;28;20607;-73
2023/05/04 06:40:29;;;;;;;4.00;2.13;;;;;;;-143.99;100.00;64180.81;6144178;28;20227;-73
2023/05/04 06:43:51;;;;;;;1.93;1.53;;;;;;;-143.99;100.00;64180.81;6140940;28;20227;-73
2023/05/04 06:47:14;;;;;;;4.07;3.70;;;;;;;-143.99;100.00;64180.81;6136604;28;20239;-75
2023/05/04 06:50:35;;;;;;;3.30;2.40;;;;;;;-143.99;100.00;64180.81;6133731;28;20239;-74
2023/05/04 06:53:58;;;;;;;3.00;1.87;;;;;;;-143.99;100.00;64180.81;6159988;28;20505;-74
2023/05/04 06:57:19;;;;;;;2.63;1.63;;;;;;;-143.99;100.00;64180.81;6133867;28;20231;-75
2023/05/04 07:00:41;;;;;;;2.17;1.40;;;;;;;-143.99;100.00;64180.81;6133391;28;20239;-76
2023/05/04 07:04:03;;;;;;;1.43;1.33;;;;;;;-143.99;100.00;64180.81;6140497;28;20231;-74
2023/05/04 07:07:24;;;;;;;1.90;1.63;;;;;;;-143.99;100.00;64180.81;6151878;28;20361;-75
2023/05/04 07:10:45;;;;;;;3.33;1.60;;;;;;;-143.99;100.00;64180.81;6142835;28;20251;-73
2023/05/04 07:14:05;;;;;;;3.37;2.23;;;;;;;-143.99;100.00;64180.81;6137354;28;20254;-74
2023/05/04 07:17:28;;;;;;;2.20;1.97;;;;;;;-143.99;100.00;64180.81;6143146;28;20490;-70
2023/05/04 07:20:49;;;;;;;4.30;1.63;;;;;;;-143.99;100.00;64180.81;6144940;28;20243;-75
2023/05/04 07:24:10;;;;;;;5.47;2.17;;;;;;;-143.99;100.00;64180.81;6131199;28;20243;-77
2023/05/04 07:27:30;;;;;;;2.30;2.10;;;;;;;-143.99;100.00;64180.81;6141231;28;20239;-72
2023/05/04 07:30:51;;;;;;;2.70;2.07;;;;;;;-143.99;100.00;64180.81;6137740;28;20231;-76
2023/05/04 07:34:13;;;;;;;5.60;3.03;;;;;;;-143.99;100.00;64180.81;6133512;28;20680;-73
2023/05/04 07:37:35;;;;;;;2.40;2.17;;;;;;;-143.99;100.00;64180.81;6131838;28;20806;-73
2023/05/04 07:40:56;;;;;;;2.30;1.70;;;;;;;-143.99;100.00;64180.81;6140661;28;20751;-74
2023/05/04 07:44:17;;;;;;;3.03;1.77;;;;;;;-143.99;100.00;64180.81;6143085;28;20662;-71
2023/05/04 07:47:37;;;;;;;2.77;1.90;;;;;;;-143.99;100.00;64180.81;6143026;28;24513;-78
2023/05/04 07:51:00;;;;;;;1.67;1.57;;;;;;;-143.99;100.00;64180.81;6131861;28;20251;-73
2023/05/04 07:54:21;;;;;;;2.40;1.43;;;;;;;-143.99;100.00;64180.81;6136975;28;20239;-72
2023/05/04 07:57:42;;;;;;;3.17;1.23;;;;;;;-143.99;100.00;64180.81;6136072;28;20235;-76
2023/05/04 08:01:03;;;;;;;5.37;1.63;;;;;;;-143.99;100.00;64180.81;6144611;28;20231;-73
2023/05/04 08:04:26;;;;;;;3.83;2.23;;;;;;;-143.99;100.00;64180.81;6136553;28;20231;-73
2023/05/04 08:07:48;;;;;;;3.43;1.67;;;;;;;-143.99;100.00;64180.81;6127195;28;20238;-74
2023/05/04 08:11:11;;;;;;;3.47;2.23;;;;;;;-143.99;100.00;64180.81;6141077;28;20645;-73
2023/05/04 08:14:33;;;;;;;2.57;1.63;;;;;;;-143.99;100.00;64180.81;6134807;28;20246;-78
2023/05/04 08:17:54;;;;;;;2.27;1.63;;;;;;;-143.99;100.00;64180.81;6131328;28;20357;-74
2023/05/04 08:21:15;;;;;;;5.83;1.57;;;;;;;-143.99;100.00;64180.81;6146299;28;20227;-76
2023/05/04 08:24:37;;;;;;;2.50;1.93;;;;;;;-143.99;100.00;64180.81;6137820;28;20234;-73
2023/05/04 08:27:58;;;;;;;4.73;4.20;;;;;;;-143.99;100.00;64180.81;6152045;28;20330;-74
2023/05/04 08:31:20;;;;;;;3.60;1.73;;;;;;;-143.99;100.00;64180.81;6127900;28;20231;-74
2023/05/04 08:34:41;;;;;;;1.70;1.60;;;;;;;-143.99;100.00;64180.81;6135082;28;20239;-72
2023/05/04 08:38:02;;;;;;;2.50;1.60;;;;;;;-143.99;100.00;64180.81;6139972;28;20235;-71
2023/05/04 08:41:24;;;;;;;1.70;0.90;;;;;;;-143.99;100.00;64180.81;6135750;28;20520;-72
2023/05/04 08:44:45;;;;;;;2.93;1.20;;;;;;;-143.99;100.00;64180.81;6143588;28;20326;-73
2023/05/04 08:48:07;;;;;;;2.57;1.20;;;;;;;-143.99;100.00;64180.81;6137743;28;20238;-74
2023/05/04 08:51:29;;;;;;;2.30;2.00;;;;;;;-143.99;100.00;64180.81;6137416;28;20242;-73
2023/05/04 08:54:53;;;;;;;2.07;1.77;;;;;;;-143.99;100.00;64180.81;6156786;28;20240;-76
2023/05/04 08:58:16;;;;;;;1.97;1.73;;;;;;;-143.99;100.00;64180.81;6146126;28;20243;-72
2023/05/04 09:01:39;;;;;;;2.10;1.90;;;;;;;-143.99;100.00;64180.81;6123282;28;20239;-72
2023/05/04 09:05:01;;;;;;;5.33;1.30;;;;;;;-143.99;100.00;64180.81;6134681;28;20234;-74
2023/05/04 09:08:22;;;;;;;2.30;1.30;;;;;;;-143.99;100.00;64180.81;6131944;28;20605;-77
2023/05/04 09:11:44;;;;;;;4.90;1.60;;;;;;;-143.99;100.00;64180.81;6128991;28;20238;-76
2023/05/04 09:15:18;;;;;;;1.93;0.83;;;;;;;-143.99;100.00;64180.81;6143012;28;20231;-74
2023/05/04 09:18:40;;;;;;;3.13;1.10;;;;;;;-143.99;100.00;64180.81;6139512;28;20239;-64
2023/05/04 09:22:00;;;;;;;1.40;1.30;;;;;;;-143.99;100.00;64180.81;6145027;28;20231;-64
2023/05/04 09:25:21;;;;;;;2.97;1.40;;;;;;;-143.99;100.00;64180.81;6134481;28;20251;-64
2023/05/04 09:28:42;;;;;;;4.30;1.50;;;;;;;-143.99;100.00;64180.81;6120726;28;20231;-77
2023/05/04 09:32:06;;;;;;;2.37;1.37;;;;;;;-143.99;100.00;64180.81;6138493;28;20231;-78
2023/05/04 09:35:28;;;;;;;7.87;2.00;;;;;;;-143.99;100.00;64180.81;6132705;28;20239;-78
2023/05/04 09:38:49;;;;;;;4.40;1.57;;;;;;;-143.99;100.00;64180.81;6139363;28;20227;-78
2023/05/04 09:42:17;;;;;;;3.23;1.43;;;;;;;-143.99;100.00;64180.81;6132417;28;20234;-78
2023/05/04 09:45:40;;;;;;;2.77;2.50;;;;;;;-143.99;100.00;64180.81;6139391;28;20227;-79
2023/05/04 09:49:02;;;;;;;2.70;1.30;;;;;;;-143.99;100.00;64180.81;6142487;28;20231;-77
2023/05/04 09:52:23;;;;;;;1.63;1.33;;;;;;;-143.99;100.00;64180.81;6141101;28;20496;-78
2023/05/04 09:55:50;;;;;;;3.57;1.97;;;;;;;-143.99;100.00;64180.81;6138475;28;20357;-78
2023/05/04 09:59:12;;;;;;;1.27;1.17;;;;;;;-143.99;100.00;64180.81;6130693;28;20231;-77
2023/05/04 10:02:34;;;;;;;3.43;1.93;;;;;;;-143.99;100.00;64180.81;6136810;28;20239;-78
2023/05/04 10:05:58;;;;;;;4.67;1.03;;;;;;;-143.99;100.00;64180.81;6133253;28;20668;-78
2023/05/04 10:09:19;;;;;;;2.17;1.53;;;;;;;-143.99;100.00;64180.81;6133027;28;20235;-78
2023/05/04 10:12:41;;;;;;;2.33;2.23;;;;;;;-143.99;100.00;64180.81;6131641;28;20274;-78
2023/05/04 10:16:17;;;;;;;1.93;1.40;;;;;;;-143.99;100.00;64180.81;6137589;28;20717;-77
2023/05/04 10:19:59;;;;;;;3.23;1.73;;;;;;;-143.99;100.00;64180.81;6140154;28;20258;-76
2023/05/04 10:23:44;;;;;;;3.17;1.40;;;;;;;-143.99;100.00;64180.81;6139147;28;20329;-77
2023/05/04 10:27:10;;;;;;;4.50;1.40;;;;;;;-143.99;100.00;64180.81;6139379;28;20310;-77
2023/05/04 10:30:31;;;;;;;2.63;1.93;;;;;;;-143.99;100.00;64180.81;6145731;28;20235;-77
2023/05/04 10:33:52;;;;;;;2.42;1.23;;;;;;;-143.99;100.00;64180.81;6154613;28;20551;-77
2023/05/04 10:37:17;;;;;;;3.83;2.47;;;;;;;-143.99;100.00;64180.81;6138498;28;20317;-78
2023/05/04 10:40:40;;;;;;;2.53;2.00;;;;;;;-143.99;100.00;64180.81;6152224;28;20314;-78
2023/05/04 10:44:05;;;;;;;2.85;2.60;;;;;;;-143.99;100.00;64180.81;6139807;28;20227;-77
2023/05/04 10:47:31;;;;;;;2.45;2.08;;;;;;;-143.99;100.00;64180.81;6146489;28;20637;-78
2023/05/04 10:50:52;;;;;;;3.25;1.88;;;;;;;-143.99;100.00;64180.81;6121982;28;20239;-66
2023/05/04 10:54:17;;;;;;;1.10;1.00;;;;;;;-143.99;100.00;64180.81;6127005;28;20235;-67
2023/05/04 10:57:49;;;;;;;2.33;1.13;;;;;;;-143.99;100.00;64180.81;6123570;28;20644;-66
2023/05/04 11:01:11;;;;;;;3.58;1.98;;;;;;;-143.99;100.00;64180.81;6143231;28;20830;-66
2023/05/04 11:04:33;;;;;;;1.70;0.98;;;;;;;-143.99;100.00;64180.81;6148351;28;20609;-65
2023/05/04 11:07:54;;;;;;;2.97;1.88;;;;;;;-143.99;100.00;64180.81;6140018;28;20235;-65
2023/05/04 11:11:16;;;;;;;2.80;1.50;;;;;;;-143.99;100.00;64180.81;6140388;28;20246;-66
2023/05/04 11:14:42;;;;;;;2.10;1.33;;;;;;;-143.99;100.00;64180.81;6119921;28;20223;-66
2023/05/04 11:18:04;;;;;;;1.35;1.25;;;;;;;-143.99;100.00;64180.81;6133289;28;20235;-65
2023/05/04 11:21:26;;;;;;;1.35;1.10;;;;;;;-143.99;100.00;64180.81;6139418;28;20260;-67
2023/05/04 11:24:48;;;;;;;1.50;1.40;;;;;;;-143.99;100.00;64180.81;6137199;28;20672;-65
2023/05/04 11:28:09;;;;;;;1.08;1.08;;;;;;;-143.99;100.00;64180.81;6139462;28;20615;-64
2023/05/04 11:31:31;;;;;;;1.75;1.42;;;;;;;-143.99;100.00;64180.81;6132449;28;20235;-65
2023/05/04 11:34:52;;;;;;;2.47;1.35;;;;;;;-143.99;100.00;64180.81;6134063;28;20675;-67
2023/05/04 11:38:18;;;;;;;2.67;1.73;;;;;;;-143.99;100.00;64180.81;6143329;28;20332;-64
2023/05/04 11:41:39;;;;;;;5.10;2.00;;;;;;;-143.99;100.00;64180.81;6142494;28;20322;-66
2023/05/04 11:45:00;;;;;;;1.92;1.40;;;;;;;-143.99;100.00;64180.81;6138225;28;20246;-66
2023/05/04 11:48:22;;;;;;;3.22;1.35;;;;;;;-143.99;100.00;64180.81;6133904;28;20591;-66
2023/05/04 11:51:43;;;;;;;3.10;1.52;;;;;;;-143.99;100.00;64180.81;6139188;28;20243;-65
2023/05/04 11:55:05;;;;;;;2.67;2.47;;;;;;;-143.99;100.00;64180.81;6131576;28;20503;-65
2023/05/04 11:58:27;;;;;;;3.55;2.20;;;;;;;-143.99;100.00;64180.81;6132409;28;20239;-65
2023/05/04 12:01:49;;;;;;;1.35;1.25;;;;;;;-143.99;100.00;64180.81;6139114;28;20249;-66
2023/05/04 12:05:14;;;;;;;4.85;1.23;;;;;;;-143.99;100.00;64180.81;6138473;28;20247;-65
2023/05/04 12:08:40;;;;;;;1.70;1.20;;;;;;;-143.99;100.00;64180.81;6141163;28;20227;-65
2023/05/04 12:12:01;;;;;;;3.35;1.67;;;;;;;-143.99;100.00;64180.81;6141984;28;20231;-66
2023/05/04 12:15:32;;;;;;;2.17;1.10;;;;;;;-143.99;100.00;64180.81;6127938;28;20255;-66
2023/05/04 12:19:02;;;;;;;1.38;1.33;;;;;;;-143.99;100.00;64180.81;6131790;28;20266;-65
2023/05/04 12:22:28;;;;;;;5.00;0.95;;;;;;;-143.99;100.00;64180.81;6141125;28;20246;-65
2023/05/04 12:25:49;;;;;;;2.67;1.05;;;;;;;-143.99;100.00;64180.81;6139608;28;20247;-66
2023/05/04 12:29:10;;;;;;;3.92;1.20;;;;;;;-143.99;100.00;64180.81;6136480;28;20242;-65
2023/05/04 12:32:31;;;;;;;2.38;0.80;;;;;;;-143.99;100.00;64180.81;6140924;28;20230;-65
2023/05/04 12:35:52;;;;;;;2.05;1.30;;;;;;;-143.99;100.00;64180.81;6140073;28;20239;-65
2023/05/04 12:39:15;;;;;;;0.60;0.50;;;;;;;-143.99;100.00;64180.81;6141849;28;20491;-65
2023/05/04 12:42:36;;;;;;;1.75;1.60;;;;;;;-143.99;100.00;64180.81;6139969;28;20599;-65
2023/05/04 12:45:57;;;;;;;2.47;1.08;;;;;;;-143.99;100.00;64180.81;6125394;28;20239;-66
2023/05/04 12:49:18;;;;;;;1.58;1.00;;;;;;;-143.99;100.00;64180.81;6130807;28;20325;-66
2023/05/04 12:52:40;;;;;;;3.38;0.82;;;;;;;-143.99;100.00;64180.81;6138643;28;20222;-66
2023/05/04 12:56:02;;;;;;;1.65;1.55;;;;;;;-143.99;100.00;64180.81;6136905;28;20243;-66
2023/05/04 12:59:23;;;;;;;3.63;2.80;;;;;;;-143.99;100.00;64180.81;6143843;28;20228;-67
2023/05/04 13:02:44;;;;;;;2.47;1.65;;;;;;;-143.99;100.00;64180.81;6132252;28;20238;-66
2023/05/04 13:06:06;;;;;;;6.53;1.08;;;;;;;-143.99;100.00;64180.81;6140847;28;20227;-66
2023/05/04 13:09:27;;;;;;;1.33;1.23;;;;;;;-143.99;100.00;64180.81;6123276;28;20574;-65
2023/05/04 13:12:50;;;;;;;1.15;1.02;;;;;;;-143.99;100.00;64180.81;6136220;28;20673;-66
2023/05/04 13:16:11;;;;;;;1.65;1.50;;;;;;;-143.99;100.00;64180.81;6132149;28;20247;-65
2023/05/04 13:19:32;;;;;;;1.45;1.35;;;;;;;-143.99;100.00;64180.81;6129279;28;20249;-65
2023/05/04 13:22:52;;;;;;;3.17;1.20;;;;;;;-143.99;100.00;64180.81;6133651;28;20227;-65
2023/05/04 13:26:14;;;;;;;0.85;0.75;;;;;;;-143.99;100.00;64180.81;6130370;28;20678;-64
2023/05/04 13:29:36;;;;;;;2.67;0.80;;;;;;;-143.99;100.00;64180.81;6133799;28;20239;-66
2023/05/04 13:32:57;;;;;;;1.15;1.05;;;;;;;-143.99;100.00;64180.81;6135246;28;20235;-66
2023/05/04 13:36:18;;;;;;;2.45;1.75;;;;;;;-143.99;100.00;64180.81;6128468;28;20624;-64
2023/05/04 13:39:40;;;;;;;4.13;1.42;;;;;;;-143.99;100.00;64180.81;6132362;28;20250;-64
2023/05/04 13:43:01;;;;;;;1.58;1.45;;;;;;;-143.99;100.00;64180.81;6143906;28;20238;-67
2023/05/04 13:46:23;;;;;;;1.05;1.00;;;;;;;-143.99;100.00;64180.81;6138701;28;20334;-67
2023/05/04 13:49:44;;;;;;;3.15;1.13;;;;;;;-143.99;100.00;64180.81;6126098;28;20239;-67
2023/05/04 13:53:05;;;;;;;1.90;1.52;;;;;;;-143.99;100.00;64180.81;6138062;28;20562;-69
2023/05/04 13:56:26;;;;;;;4.72;1.50;;;;;;;-143.99;100.00;64180.81;6140465;28;20235;-69
2023/05/04 13:59:47;;;;;;;0.82;0.77;;;;;;;-143.99;100.00;64180.81;6142249;28;20617;-69
2023/05/04 14:03:09;;;;;;;3.65;2.13;;;;;;;-143.99;100.00;64180.81;6137912;28;20235;-68
2023/05/04 14:06:31;;;;;;;2.05;1.88;;;;;;;-143.99;100.00;64180.81;6133489;28;20254;-71
2023/05/04 14:09:52;;;;;;;1.63;1.17;;;;;;;-143.99;100.00;64180.81;6121382;28;20242;-71
2023/05/04 14:13:13;;;;;;;1.15;1.05;;;;;;;-143.99;100.00;64180.81;6136938;28;20234;-73
2023/05/04 14:16:34;;;;;;;4.18;1.38;;;;;;;-143.99;100.00;64180.81;6138780;28;20235;-72
2023/05/04 14:19:57;;;;;;;1.60;1.20;;;;;;;-143.99;100.00;64180.81;6134959;28;20251;-71
2023/05/04 14:23:18;;;;;;;1.00;1.00;;;;;;;-143.99;100.00;64180.81;6133773;28;20250;-72
2023/05/04 14:26:39;;;;;;;2.83;1.25;;;;;;;-143.99;100.00;64180.81;6135955;28;20239;-72
2023/05/04 14:30:00;;;;;;;2.67;1.58;;;;;;;-143.99;100.00;64180.81;6135031;28;20259;-72
2023/05/04 14:33:20;;;;;;;3.70;1.23;;;;;;;-143.99;100.00;64180.81;6137917;28;20350;-72
2023/05/04 14:36:43;;;;;;;2.00;1.77;;;;;;;-143.99;100.00;64180.81;6130885;28;20238;-72
2023/05/04 14:40:05;;;;;;;0.93;0.93;;;;;;;-143.99;100.00;64180.81;6136952;28;20243;-72
2023/05/04 14:43:25;;;;;;;2.90;1.58;;;;;;;-143.99;100.00;64180.81;6139390;28;20231;-72
2023/05/04 14:46:47;;;;;;;3.92;1.65;;;;;;;-143.99;100.00;64180.81;6136339;28;20322;-73
2023/05/04 14:50:08;;;;;;;1.77;1.10;;;;;;;-143.99;100.00;64180.81;6132972;28;20239;-71
2023/05/04 14:53:33;;;;;;;3.45;0.90;;;;;;;-143.99;100.00;64180.81;6126410;28;20239;-72
2023/05/04 14:56:54;;;;;;;2.60;0.90;;;;;;;-143.99;100.00;64180.81;6135607;28;20227;-71
2023/05/04 15:00:18;;;;;;;4.75;2.05;;;;;;;-143.99;100.00;64180.81;6131747;28;20235;-72
2023/05/04 15:03:39;;;;;;;1.45;0.90;;;;;;;-143.99;100.00;64180.81;6133093;28;20243;-71
2023/05/04 15:07:00;;;;;;;1.10;0.88;;;;;;;-143.99;100.00;64180.81;6135297;28;20423;-72
2023/05/04 15:10:22;;;;;;;0.70;0.70;;;;;;;-143.99;100.00;64180.81;6144226;28;20338;-71
2023/05/04 15:13:44;;;;;;;1.55;1.42;;;;;;;-143.99;100.00;64180.81;6146594;28;20231;-71
2023/05/04 15:17:06;;;;;;;2.28;1.02;;;;;;;-143.99;100.00;64180.81;6145219;28;20228;-72